This is the latest recevied weather packets stored in our database for station/object I2HLY-4. If no packets are shown the sender has not sent any weather packets the latest 1 day(s).
| Time | Temp. | Humidity | Pressure | Rain* | Wind** | Luminosity | Snow |
|---|---|---|---|---|---|---|---|
| 1777965444 | 8.89° C | 91% | 1014.7 hPa | 2.03 mm | 0 m/s | - | - |
| 1777964548 | 8.89° C | 90% | 1014.5 hPa | 1.02 mm | 0 m/s | - | - |
| 1777963651 | 8.89° C | 88% | 1014.5 hPa | 1.02 mm | 0.45 m/s, 82° | - | - |
| 1777962737 | 9.44° C | 84% | 1014.6 hPa | 0 mm | 0.45 m/s, 65° | - | - |
| 1777961838 | 9.44° C | 83% | 1014.6 hPa | 0 mm | 0 m/s | - | - |
| 1777960936 | 8.89° C | 84% | 1014.4 hPa | 0 mm | 0.89 m/s, 127° | - | - |
| 1777960039 | 8.33° C | 84% | 1014.3 hPa | 0 mm | 1.34 m/s, 82° | - | - |
| 1777959139 | 8.89° C | 82% | 1014.5 hPa | 0 mm | 0.45 m/s, 133° | - | - |
| 1777958245 | 9.44° C | 77% | 1014.3 hPa | 0 mm | 0.45 m/s, 64° | - | - |
| 1777957344 | 9.44° C | 70% | 1014.4 hPa | 0 mm | 0 m/s | - | - |
| 1777956447 | 9.44° C | 69% | 1014.1 hPa | 0 mm | 0 m/s | - | - |
| 1777955533 | 9.44° C | 70% | 1013.9 hPa | 0 mm | 0.45 m/s, 195° | - | - |
| 1777954633 | 10° C | 69% | 1013.9 hPa | 0 mm | 0 m/s | - | - |
| 1777953739 | 10.56° C | 66% | 1014 hPa | 0 mm | 0.45 m/s, 265° | - | - |
| 1777952840 | 10.56° C | 65% | 1013.8 hPa | 0 mm | 1.34 m/s, 33° | - | - |
| 1777951941 | 10° C | 66% | 1014 hPa | 0 mm | 0.89 m/s, 99° | - | - |
| 1777951046 | 9.44° C | 71% | 1014.2 hPa | 0 mm | 0 m/s | - | - |
| 1777950146 | 9.44° C | 70% | 1014.4 hPa | 0 mm | 0.89 m/s, 57° | - | - |
| 1777949251 | 9.44° C | 67% | 1014.7 hPa | 0 mm | 0.89 m/s, 80° | - | - |
| 1777948332 | 9.44° C | 65% | 1014.8 hPa | 0 mm | 0.45 m/s, 259° | - | - |
| 1777947432 | 10° C | 64% | 1014.9 hPa | 0 mm | 0 m/s | - | - |
| 1777946536 | 10° C | 62% | 1014.9 hPa | 0 mm | 1.34 m/s, 65° | - | - |
* Rain latest hour (hover to see other rain measurements)
** Current wind speed in m/s (hover to see current wind gust speed)